Time;durP1;ratioP1;P1;durP2;ratioP2;P2;SDS_P1;SDS_P2;PMS_P1;PMS_P2;Temp;Humidity;BMP_temperature;BMP_pressure;BME280_temperature;BME280_humidity;BME280_pressure;Samples;Min_cycle;Max_cycle;Signal;HPM_P1;HPM_P2
2023/09/09 00:01:31;;;;;;;7.20;5.68;;;21.80;99.90;;;;;;7393660;19;20184;-76
2023/09/09 00:03:56;;;;;;;7.05;5.47;;;21.40;99.90;;;;;;7391239;19;20186;-76
2023/09/09 00:06:22;;;;;;;5.97;5.35;;;21.10;99.90;;;;;;7392483;19;20159;-74
2023/09/09 00:08:48;;;;;;;7.78;5.78;;;21.10;99.90;;;;;;7392712;19;20134;-75
2023/09/09 00:11:14;;;;;;;8.18;6.70;;;21.00;99.90;;;;;;7391895;19;20139;-76
2023/09/09 00:13:40;;;;;;;8.45;5.60;;;21.10;99.90;;;;;;7392560;19;20608;-76
2023/09/09 00:16:07;;;;;;;7.72;6.25;;;21.30;99.90;;;;;;7390375;19;20131;-76
2023/09/09 00:18:33;;;;;;;6.75;6.05;;;21.20;99.90;;;;;;7392350;19;20154;-76
2023/09/09 00:21:00;;;;;;;6.35;5.60;;;21.00;99.90;;;;;;7392216;19;20340;-75
2023/09/09 00:23:26;;;;;;;8.25;5.60;;;20.80;99.90;;;;;;7391988;19;20153;-76
2023/09/09 00:25:52;;;;;;;6.80;6.10;;;20.80;99.90;;;;;;7390661;19;20147;-76
2023/09/09 00:28:18;;;;;;;6.72;6.03;;;20.80;99.90;;;;;;7391710;19;20483;-76
2023/09/09 00:30:43;;;;;;;9.88;6.75;;;20.70;99.90;;;;;;7390694;19;20177;-77
2023/09/09 00:33:09;;;;;;;6.90;5.93;;;20.70;99.90;;;;;;7390545;19;20146;-75
2023/09/09 00:35:38;;;;;;;6.80;5.50;;;20.70;99.90;;;;;;7390796;19;20562;-75
2023/09/09 00:38:05;;;;;;;9.73;6.03;;;20.70;99.90;;;;;;7390873;19;20150;-75
2023/09/09 00:40:32;;;;;;;7.35;6.35;;;21.10;99.90;;;;;;7391207;19;20162;-76
2023/09/09 00:42:58;;;;;;;7.05;5.82;;;21.10;99.90;;;;;;7391263;19;20595;-75
2023/09/09 00:45:25;;;;;;;7.65;6.30;;;21.00;99.90;;;;;;7391108;19;20139;-76
2023/09/09 00:47:51;;;;;;;8.45;6.15;;;21.00;99.90;;;;;;7390710;19;20173;-75
2023/09/09 00:50:18;;;;;;;10.35;6.15;;;21.00;99.90;;;;;;7390178;19;20581;-76
2023/09/09 00:52:46;;;;;;;7.90;6.07;;;20.90;99.90;;;;;;7390359;19;20470;-76
2023/09/09 00:55:12;;;;;;;7.88;5.93;;;21.10;99.90;;;;;;7390201;19;20138;-76
2023/09/09 00:57:38;;;;;;;7.50;6.22;;;21.10;99.90;;;;;;7391001;19;20584;-76
2023/09/09 01:00:09;;;;;;;8.43;6.57;;;21.00;99.90;;;;;;7392040;19;20205;-76
2023/09/09 01:02:39;;;;;;;6.78;5.93;;;20.80;99.90;;;;;;7389107;19;20162;-77
2023/09/09 01:05:07;;;;;;;6.80;6.10;;;20.80;99.90;;;;;;7389041;19;20178;-82
2023/09/09 01:07:47;;;;;;;6.90;5.95;;;20.90;99.90;;;;;;7393568;19;20469;-87
2023/09/09 01:10:14;;;;;;;10.13;6.30;;;20.80;99.90;;;;;;7393586;19;20214;-85
2023/09/09 01:12:42;;;;;;;7.03;5.90;;;20.60;99.90;;;;;;7393277;19;20122;-85
2023/09/09 01:15:08;;;;;;;7.97;6.53;;;20.70;99.90;;;;;;7390927;19;20599;-85
2023/09/09 01:17:35;;;;;;;8.00;6.40;;;20.80;99.90;;;;;;7393030;19;20146;-85
2023/09/09 01:20:15;;;;;;;9.25;6.55;;;20.70;99.90;;;;;;7391307;19;20161;-85
2023/09/09 01:22:48;;;;;;;6.93;5.82;;;20.60;99.90;;;;;;7392186;19;20194;-83
2023/09/09 01:25:14;;;;;;;7.18;6.07;;;20.70;99.90;;;;;;7391919;19;20137;-85
2023/09/09 01:27:41;;;;;;;9.77;6.43;;;20.60;99.90;;;;;;7392758;19;20163;-84
2023/09/09 01:30:08;;;;;;;7.85;6.18;;;20.70;99.90;;;;;;7390187;19;20611;-85
2023/09/09 01:32:35;;;;;;;9.10;7.18;;;20.70;99.90;;;;;;7390605;19;20143;-86
2023/09/09 01:35:06;;;;;;;7.50;6.70;;;20.70;99.90;;;;;;7390548;19;20344;-84
2023/09/09 01:37:33;;;;;;;9.30;6.47;;;20.70;99.90;;;;;;7390458;19;20134;-85
2023/09/09 01:40:09;;;;;;;8.00;6.82;;;20.70;99.90;;;;;;7388518;19;20150;-86
2023/09/09 01:42:35;;;;;;;9.60;6.80;;;20.70;99.90;;;;;;7389977;19;20127;-86
2023/09/09 01:45:00;;;;;;;8.93;6.32;;;20.60;99.90;;;;;;7389137;19;20663;-85
2023/09/09 01:47:26;;;;;;;8.43;6.47;;;20.80;99.90;;;;;;7388744;19;20614;-85
2023/09/09 01:49:52;;;;;;;8.75;6.70;;;20.80;99.90;;;;;;7392423;19;20167;-84
2023/09/09 01:52:18;;;;;;;8.80;7.30;;;20.70;99.90;;;;;;7387293;19;20161;-82
2023/09/09 01:54:43;;;;;;;8.18;6.80;;;20.80;99.90;;;;;;7388628;19;20146;-86
2023/09/09 01:57:09;;;;;;;12.98;6.70;;;20.80;99.90;;;;;;7388240;19;20150;-87
2023/09/09 01:59:35;;;;;;;8.18;6.55;;;20.80;99.90;;;;;;7389339;19;20166;-85
2023/09/09 02:02:00;;;;;;;7.80;6.43;;;20.60;99.90;;;;;;7386570;19;20170;-82
2023/09/09 02:04:26;;;;;;;8.57;6.65;;;20.50;99.90;;;;;;7387116;19;20174;-84
2023/09/09 02:06:52;;;;;;;9.02;6.97;;;20.40;99.90;;;;;;7388637;19;20134;-82
2023/09/09 02:09:17;;;;;;;8.65;6.75;;;20.30;99.90;;;;;;7388773;19;20611;-86
2023/09/09 02:11:43;;;;;;;12.05;6.72;;;20.20;99.90;;;;;;7386642;19;20123;-85
2023/09/09 02:14:09;;;;;;;8.30;7.45;;;20.10;99.90;;;;;;7385608;19;20133;-85
2023/09/09 02:16:35;;;;;;;7.93;6.93;;;20.40;99.90;;;;;;7383622;19;20214;-86
2023/09/09 02:19:00;;;;;;;8.02;6.53;;;20.40;99.90;;;;;;7387344;19;20134;-87
2023/09/09 02:21:28;;;;;;;8.23;6.40;;;20.30;99.90;;;;;;7386806;19;20524;-83
2023/09/09 02:23:53;;;;;;;9.68;5.90;;;20.20;99.90;;;;;;7387367;19;20134;-86
2023/09/09 02:26:19;;;;;;;9.43;6.65;;;20.20;99.90;;;;;;7386974;19;20127;-85
2023/09/09 02:28:46;;;;;;;8.25;6.05;;;20.20;99.90;;;;;;7386987;19;20134;-83
2023/09/09 02:31:12;;;;;;;8.35;6.50;;;20.10;99.90;;;;;;7387286;19;20163;-82
2023/09/09 02:33:37;;;;;;;7.90;6.25;;;19.90;99.90;;;;;;7388447;19;20587;-86
2023/09/09 02:36:03;;;;;;;8.13;6.22;;;19.90;99.90;;;;;;7384680;19;20603;-83
2023/09/09 02:38:29;;;;;;;7.68;6.57;;;19.90;99.90;;;;;;7387547;19;20134;-85
2023/09/09 02:40:55;;;;;;;8.05;6.60;;;19.80;99.90;;;;;;7377621;19;20596;-84
2023/09/09 02:43:20;;;;;;;9.57;6.63;;;19.90;99.90;;;;;;7379500;19;20146;-84
2023/09/09 02:45:46;;;;;;;10.23;6.57;;;19.80;99.90;;;;;;7386391;19;20603;-81
2023/09/09 02:48:12;;;;;;;7.57;6.53;;;19.60;99.90;;;;;;7385908;19;20161;-84
2023/09/09 02:50:38;;;;;;;8.93;7.03;;;19.70;99.90;;;;;;7386543;19;20230;-86
2023/09/09 02:53:03;;;;;;;8.65;6.93;;;19.80;99.90;;;;;;7386574;19;20127;-86
2023/09/09 02:55:29;;;;;;;8.68;7.00;;;19.90;99.90;;;;;;7383830;19;20135;-85
2023/09/09 02:57:55;;;;;;;9.55;6.97;;;20.10;99.90;;;;;;7387005;19;20134;-85
2023/09/09 03:00:21;;;;;;;9.05;7.05;;;20.30;99.90;;;;;;7387250;19;20620;-85
2023/09/09 03:02:47;;;;;;;8.10;6.65;;;20.40;99.90;;;;;;7386472;19;20138;-83
2023/09/09 03:05:12;;;;;;;9.13;6.90;;;20.40;99.90;;;;;;7383691;19;20146;-82
2023/09/09 03:07:43;;;;;;;9.38;7.38;;;20.10;99.90;;;;;;7381802;19;20150;-82
2023/09/09 03:10:08;;;;;;;9.80;7.22;;;19.90;99.90;;;;;;7385312;19;20167;-86
2023/09/09 03:12:34;;;;;;;8.95;6.38;;;19.70;99.90;;;;;;7386993;19;20216;-85
2023/09/09 03:15:03;;;;;;;10.50;7.00;;;19.60;99.90;;;;;;7383986;19;20131;-85
2023/09/09 03:17:29;;;;;;;8.10;6.90;;;19.40;99.90;;;;;;7385700;19;20471;-83
2023/09/09 03:19:55;;;;;;;7.97;6.55;;;19.60;99.90;;;;;;7384712;19;20135;-84
2023/09/09 03:22:21;;;;;;;8.95;7.20;;;19.70;99.90;;;;;;7385145;19;20144;-84
2023/09/09 03:24:47;;;;;;;9.98;7.10;;;19.80;99.90;;;;;;7383711;19;20596;-81
2023/09/09 03:27:13;;;;;;;8.05;6.72;;;19.90;99.90;;;;;;7390394;19;20138;-84
2023/09/09 03:29:39;;;;;;;7.40;6.20;;;19.70;99.90;;;;;;7389793;19;20137;-81
2023/09/09 03:32:05;;;;;;;8.15;7.35;;;19.90;99.90;;;;;;7390872;19;20135;-86
2023/09/09 03:34:30;;;;;;;7.53;6.60;;;20.00;99.90;;;;;;7389709;19;20477;-83
2023/09/09 03:36:56;;;;;;;8.93;7.03;;;20.20;99.90;;;;;;7388733;19;20135;-84
2023/09/09 03:39:23;;;;;;;8.93;6.80;;;20.10;99.90;;;;;;7391110;19;20141;-82
2023/09/09 03:41:48;;;;;;;7.78;6.63;;;20.20;99.90;;;;;;7390615;19;20218;-86
2023/09/09 03:44:14;;;;;;;11.30;6.55;;;19.90;99.90;;;;;;7390223;19;20476;-85
2023/09/09 03:46:40;;;;;;;10.02;6.75;;;19.60;99.90;;;;;;7393889;19;20166;-85
2023/09/09 03:49:06;;;;;;;8.88;6.68;;;19.50;99.90;;;;;;7391111;19;20213;-85
2023/09/09 03:51:31;;;;;;;10.32;6.72;;;19.60;99.90;;;;;;7390705;19;20143;-85
2023/09/09 03:53:57;;;;;;;7.90;6.38;;;19.70;99.90;;;;;;7389621;19;20138;-84
2023/09/09 03:56:23;;;;;;;8.07;6.70;;;19.70;99.90;;;;;;7389096;19;20138;-84
2023/09/09 03:58:48;;;;;;;7.43;6.50;;;19.70;99.90;;;;;;7390070;19;20135;-85
2023/09/09 04:01:14;;;;;;;8.60;7.00;;;19.70;99.90;;;;;;7390421;19;20509;-85
2023/09/09 04:03:40;;;;;;;8.30;6.95;;;19.80;99.90;;;;;;7390827;19;20119;-85
2023/09/09 04:06:09;;;;;;;9.27;6.88;;;19.80;99.90;;;;;;7388502;19;20459;-86
2023/09/09 04:08:36;;;;;;;7.45;6.07;;;19.70;99.90;;;;;;7389827;19;20138;-85
2023/09/09 04:11:03;;;;;;;7.43;6.45;;;19.80;99.90;;;;;;7390340;19;20531;-85
2023/09/09 04:13:29;;;;;;;10.18;6.75;;;19.90;99.90;;;;;;7388518;19;20254;-84
2023/09/09 04:15:56;;;;;;;8.48;6.90;;;19.90;99.90;;;;;;7388403;19;20151;-84
2023/09/09 04:18:26;;;;;;;10.98;6.63;;;19.80;99.90;;;;;;7389689;19;20150;-84
2023/09/09 04:20:52;;;;;;;8.93;6.75;;;19.70;99.90;;;;;;7388991;19;20217;-80
2023/09/09 04:23:18;;;;;;;7.45;5.63;;;19.80;99.90;;;;;;7389130;19;20607;-84
2023/09/09 04:25:45;;;;;;;9.10;7.00;;;20.00;99.90;;;;;;7390119;19;20133;-83
2023/09/09 04:28:12;;;;;;;9.65;6.93;;;20.20;99.90;;;;;;7390297;19;20172;-85
2023/09/09 04:30:38;;;;;;;7.18;6.43;;;19.90;99.90;;;;;;7389251;19;20150;-82
2023/09/09 04:33:11;;;;;;;8.70;6.47;;;19.80;99.90;;;;;;7389360;19;20154;-84
2023/09/09 04:35:41;;;;;;;9.82;6.50;;;19.90;99.90;;;;;;7390036;19;20134;-85
2023/09/09 04:38:08;;;;;;;7.60;6.82;;;19.90;99.90;;;;;;7387916;19;20160;-85
2023/09/09 04:40:39;;;;;;;6.80;6.10;;;20.10;99.90;;;;;;7389366;19;20170;-84
2023/09/09 04:43:04;;;;;;;9.07;6.82;;;20.10;99.90;;;;;;7388852;19;20221;-86
2023/09/09 04:45:30;;;;;;;7.45;6.68;;;19.90;99.90;;;;;;7387885;19;20143;-84
2023/09/09 04:47:56;;;;;;;7.40;6.32;;;19.70;99.90;;;;;;7387173;19;20159;-85
2023/09/09 04:50:23;;;;;;;10.05;6.40;;;19.60;99.90;;;;;;7387661;19;20242;-85
2023/09/09 04:52:49;;;;;;;7.15;6.28;;;19.60;99.90;;;;;;7387282;19;20150;-85
2023/09/09 04:55:15;;;;;;;8.38;7.10;;;19.60;99.90;;;;;;7387138;19;20518;-85
2023/09/09 04:57:41;;;;;;;8.00;6.93;;;19.50;99.90;;;;;;7389302;19;20138;-83
2023/09/09 05:00:08;;;;;;;8.65;6.90;;;19.40;99.90;;;;;;7386501;19;20193;-86
2023/09/09 05:02:38;;;;;;;7.15;6.43;;;19.40;99.90;;;;;;7390010;19;20678;-81
2023/09/09 05:05:05;;;;;;;10.23;6.55;;;19.30;99.90;;;;;;7384926;19;20151;-84
2023/09/09 05:07:35;;;;;;;8.30;7.15;;;19.20;99.90;;;;;;7390083;19;20130;-84
2023/09/09 05:10:04;;;;;;;9.13;6.97;;;19.10;99.90;;;;;;7387997;19;20553;-85
2023/09/09 05:12:33;;;;;;;7.57;6.65;;;19.00;99.90;;;;;;7388220;19;20150;-85
2023/09/09 05:14:59;;;;;;;9.07;7.07;;;19.00;99.90;;;;;;7388835;19;20631;-85
2023/09/09 05:17:25;;;;;;;8.73;6.68;;;18.90;99.90;;;;;;7388714;19;20225;-84
2023/09/09 05:19:51;;;;;;;8.52;6.30;;;19.00;99.90;;;;;;7388404;19;20153;-84
2023/09/09 05:22:16;;;;;;;9.10;6.93;;;19.00;99.90;;;;;;7386698;19;20147;-79
2023/09/09 05:24:42;;;;;;;7.35;6.32;;;19.20;99.90;;;;;;7386670;19;20146;-85
2023/09/09 05:27:08;;;;;;;6.75;5.97;;;19.30;99.90;;;;;;7387282;19;20825;-82
2023/09/09 05:29:34;;;;;;;7.43;5.97;;;19.50;99.90;;;;;;7388832;19;20184;-84
2023/09/09 05:31:59;;;;;;;8.82;6.65;;;20.00;99.90;;;;;;7386679;19;20138;-85
2023/09/09 05:34:25;;;;;;;8.27;6.50;;;20.20;99.90;;;;;;7388156;19;20209;-86
2023/09/09 05:36:51;;;;;;;8.88;7.53;;;20.30;99.90;;;;;;7384564;19;20160;-85
2023/09/09 05:39:17;;;;;;;7.95;6.68;;;20.40;99.90;;;;;;7387654;19;20180;-85
2023/09/09 05:41:43;;;;;;;7.70;6.47;;;20.50;99.90;;;;;;7385180;19;20257;-84
2023/09/09 05:44:08;;;;;;;10.05;7.55;;;20.50;99.90;;;;;;7386180;19;20143;-84
2023/09/09 05:46:34;;;;;;;11.88;7.50;;;20.50;99.90;;;;;;7387845;19;20163;-81
2023/09/09 05:49:00;;;;;;;10.05;7.82;;;20.50;99.90;;;;;;7384167;19;20595;-85
2023/09/09 05:51:25;;;;;;;12.50;7.80;;;20.60;99.90;;;;;;7385578;19;20147;-85
2023/09/09 05:53:51;;;;;;;8.38;7.50;;;20.60;99.90;;;;;;7384116;19;20148;-84
2023/09/09 05:56:17;;;;;;;11.05;7.72;;;20.30;99.90;;;;;;7383822;19;20169;-84
2023/09/09 05:58:43;;;;;;;9.48;7.28;;;20.40;99.90;;;;;;7384654;19;20154;-84
2023/09/09 06:01:09;;;;;;;8.68;7.60;;;20.50;99.90;;;;;;7384406;19;20154;-84
2023/09/09 06:03:35;;;;;;;16.00;7.78;;;20.40;99.90;;;;;;7386401;19;20168;-83
2023/09/09 06:06:02;;;;;;;8.32;7.15;;;20.30;99.90;;;;;;7382742;19;20619;-83
2023/09/09 06:08:28;;;;;;;9.70;7.57;;;20.40;99.90;;;;;;7386360;19;20152;-83
2023/09/09 06:10:54;;;;;;;8.43;7.30;;;20.20;99.90;;;;;;7385682;19;20150;-82
2023/09/09 06:13:20;;;;;;;9.63;7.60;;;20.00;99.90;;;;;;7384920;19;20151;-84
2023/09/09 06:15:46;;;;;;;7.90;6.97;;;20.00;99.90;;;;;;7385796;19;20166;-85
2023/09/09 06:18:12;;;;;;;9.40;7.90;;;20.00;99.90;;;;;;7386337;19;20142;-83
2023/09/09 06:20:37;;;;;;;9.90;7.47;;;20.10;99.90;;;;;;7386807;19;20150;-84
2023/09/09 06:23:03;;;;;;;7.63;6.75;;;20.30;99.90;;;;;;7385716;19;20210;-81
2023/09/09 06:25:31;;;;;;;8.90;7.18;;;20.00;99.90;;;;;;7386559;19;20170;-82
2023/09/09 06:27:56;;;;;;;8.65;6.72;;;19.90;99.90;;;;;;7385826;19;20166;-80
2023/09/09 06:30:22;;;;;;;9.50;7.00;;;20.00;99.90;;;;;;7387311;19;20357;-85
2023/09/09 06:32:48;;;;;;;7.95;6.80;;;19.90;99.90;;;;;;7385970;19;20150;-84
2023/09/09 06:35:14;;;;;;;8.82;6.68;;;19.90;99.90;;;;;;7386850;19;20142;-85
2023/09/09 06:37:39;;;;;;;7.60;6.78;;;19.90;99.90;;;;;;7384952;19;20619;-84
2023/09/09 06:40:06;;;;;;;7.90;6.10;;;20.00;99.90;;;;;;7385926;19;20143;-85
2023/09/09 06:42:31;;;;;;;7.40;6.60;;;19.90;99.90;;;;;;7385727;19;20150;-86
2023/09/09 06:44:59;;;;;;;7.80;7.00;;;20.20;99.90;;;;;;7386295;19;20230;-84
2023/09/09 06:47:24;;;;;;;9.15;7.20;;;20.50;99.90;;;;;;7385971;19;20162;-84
2023/09/09 06:49:50;;;;;;;10.32;8.38;;;20.70;99.90;;;;;;7389286;19;20588;-84
2023/09/09 06:52:16;;;;;;;9.35;7.78;;;20.80;99.90;;;;;;7386123;19;20134;-85
2023/09/09 06:54:43;;;;;;;11.00;8.52;;;21.00;99.90;;;;;;7385681;19;20167;-85
2023/09/09 06:57:09;;;;;;;10.23;8.23;;;21.00;99.90;;;;;;7382792;19;20149;-83
2023/09/09 06:59:35;;;;;;;12.90;8.38;;;21.00;99.90;;;;;;7387986;19;20162;-82
2023/09/09 07:02:02;;;;;;;10.43;8.30;;;21.00;99.90;;;;;;7393446;19;20154;-83
2023/09/09 07:04:28;;;;;;;10.57;7.80;;;21.00;99.90;;;;;;7391963;19;20150;-84
2023/09/09 07:06:53;;;;;;;9.60;8.05;;;21.00;99.90;;;;;;7394356;19;20138;-84
2023/09/09 07:09:21;;;;;;;10.52;7.97;;;21.00;99.90;;;;;;7392654;19;20143;-82
2023/09/09 07:11:46;;;;;;;11.25;9.20;;;21.00;99.90;;;;;;7392897;19;20150;-85
2023/09/09 07:14:12;;;;;;;9.38;8.30;;;21.10;99.90;;;;;;7392348;19;20225;-88
2023/09/09 07:16:38;;;;;;;9.35;7.40;;;21.10;99.90;;;;;;7394525;19;20217;-84
2023/09/09 07:19:04;;;;;;;10.02;7.78;;;21.20;99.90;;;;;;7394337;19;20135;-83
2023/09/09 07:21:30;;;;;;;11.07;8.18;;;21.20;99.90;;;;;;7395516;19;20472;-87
2023/09/09 07:23:55;;;;;;;9.45;7.35;;;21.30;99.90;;;;;;7396368;19;20522;-85
2023/09/09 07:26:21;;;;;;;10.30;7.78;;;21.30;99.90;;;;;;7395446;19;20159;-85
2023/09/09 07:28:47;;;;;;;10.68;7.03;;;21.40;99.90;;;;;;7394441;19;20503;-85
2023/09/09 07:31:13;;;;;;;8.82;7.32;;;21.40;99.90;;;;;;7393208;19;20157;-87
2023/09/09 07:33:39;;;;;;;11.85;7.97;;;21.50;99.90;;;;;;7392066;19;20284;-85
2023/09/09 07:36:05;;;;;;;8.57;7.25;;;21.60;99.90;;;;;;7390211;19;20137;-85
2023/09/09 07:38:31;;;;;;;8.57;6.95;;;21.70;99.90;;;;;;7392093;19;20154;-82
2023/09/09 07:40:58;;;;;;;8.18;7.38;;;21.80;99.90;;;;;;7394275;19;20150;-79
2023/09/09 07:43:24;;;;;;;9.68;7.82;;;21.90;99.90;;;;;;7385589;19;20485;-80
2023/09/09 07:45:51;;;;;;;12.35;7.50;;;21.80;99.90;;;;;;7381852;19;20131;-82
2023/09/09 07:48:18;;;;;;;9.82;7.20;;;21.90;99.90;;;;;;7392994;19;20142;-79
2023/09/09 07:50:55;;;;;;;7.97;7.18;;;22.00;99.90;;;;;;7389997;19;20206;-81
2023/09/09 07:53:22;;;;;;;8.75;7.22;;;22.20;99.90;;;;;;7391995;19;20190;-81
2023/09/09 07:55:49;;;;;;;8.43;7.45;;;22.40;99.90;;;;;;7390108;19;20138;-81
2023/09/09 07:58:16;;;;;;;7.78;6.97;;;22.60;99.90;;;;;;7391107;19;20198;-81
2023/09/09 08:00:44;;;;;;;8.98;7.15;;;23.00;99.90;;;;;;7388295;19;20524;-81
2023/09/09 08:03:10;;;;;;;11.15;9.45;;;23.40;99.90;;;;;;7389764;19;20127;-80
2023/09/09 08:05:40;;;;;;;9.30;7.72;;;23.80;99.90;;;;;;7391374;19;20223;-80
2023/09/09 08:08:07;;;;;;;8.85;7.82;;;24.10;99.90;;;;;;7387961;19;20139;-78
2023/09/09 08:10:33;;;;;;;8.80;7.90;;;24.20;99.90;;;;;;7390345;19;20147;-79
2023/09/09 08:13:00;;;;;;;9.13;7.68;;;24.30;99.90;;;;;;7385577;19;20172;-78
2023/09/09 08:15:26;;;;;;;10.55;8.63;;;24.20;99.90;;;;;;7389122;19;20145;-81
2023/09/09 08:17:52;;;;;;;10.43;8.23;;;24.20;99.90;;;;;;7389937;19;20492;-80
2023/09/09 08:20:18;;;;;;;10.02;8.43;;;24.20;99.90;;;;;;7385553;19;20158;-79
2023/09/09 08:22:44;;;;;;;10.02;8.63;;;24.20;99.90;;;;;;7390694;19;20154;-79
2023/09/09 08:25:11;;;;;;;11.88;9.60;;;24.30;99.90;;;;;;7387361;19;20252;-80
2023/09/09 08:27:38;;;;;;;9.68;8.25;;;24.50;99.90;;;;;;7391229;19;20150;-80
2023/09/09 08:30:06;;;;;;;8.95;7.40;;;24.50;99.90;;;;;;7390282;19;20151;-80
2023/09/09 08:32:32;;;;;;;9.15;7.32;;;24.40;99.90;;;;;;7391122;19;20357;-80
2023/09/09 08:34:59;;;;;;;9.77;7.75;;;24.50;99.90;;;;;;7389158;19;20254;-81
2023/09/09 08:37:25;;;;;;;8.05;7.25;;;24.60;99.90;;;;;;7388862;19;20130;-80
2023/09/09 08:39:54;;;;;;;9.50;8.38;;;24.60;99.90;;;;;;7389637;19;20432;-81
2023/09/09 08:42:35;;;;;;;9.13;7.82;;;24.50;99.90;;;;;;7388365;19;20147;-81
2023/09/09 08:45:14;;;;;;;9.85;7.35;;;24.50;99.90;;;;;;7385998;19;20130;-83
2023/09/09 08:47:41;;;;;;;8.45;7.00;;;24.60;99.90;;;;;;7390170;19;20146;-83
2023/09/09 08:50:10;;;;;;;9.40;7.13;;;24.60;99.90;;;;;;7390494;19;20174;-82
2023/09/09 08:52:35;;;;;;;7.43;6.63;;;24.60;99.90;;;;;;7389164;19;20139;-81
2023/09/09 08:55:01;;;;;;;7.20;6.50;;;24.70;99.90;;;;;;7388606;19;20134;-84
2023/09/09 08:57:31;;;;;;;7.75;6.95;;;24.70;99.90;;;;;;7390138;19;20137;-86
2023/09/09 09:00:03;;;;;;;9.50;6.93;;;24.90;99.90;;;;;;7391658;19;20147;-85
2023/09/09 09:02:29;;;;;;;7.88;7.07;;;24.90;99.90;;;;;;7392339;19;20158;-82
2023/09/09 09:04:56;;;;;;;8.23;7.07;;;25.10;99.90;;;;;;7387339;19;20173;-86
2023/09/09 09:07:27;;;;;;;8.88;7.72;;;25.20;99.90;;;;;;7390244;19;20165;-80
2023/09/09 09:09:54;;;;;;;8.23;6.50;;;25.30;99.90;;;;;;7389702;19;20158;-80
2023/09/09 09:12:21;;;;;;;7.68;6.10;;;25.40;99.90;;;;;;7390490;19;20460;-80
2023/09/09 09:14:47;;;;;;;8.45;6.28;;;25.50;99.90;;;;;;7388994;19;20226;-80
2023/09/09 09:17:15;;;;;;;9.05;7.40;;;25.60;99.90;;;;;;7387399;19;20168;-81
2023/09/09 09:19:41;;;;;;;9.98;7.88;;;25.60;99.90;;;;;;7389784;19;20143;-78
2023/09/09 09:22:08;;;;;;;9.15;6.28;;;25.50;99.90;;;;;;7388550;19;20161;-82
2023/09/09 09:24:44;;;;;;;11.27;7.97;;;25.50;99.90;;;;;;7387885;19;20665;-80
2023/09/09 09:27:14;;;;;;;8.70;6.32;;;25.60;99.90;;;;;;7391682;19;20677;-82
2023/09/09 09:29:41;;;;;;;6.82;6.07;;;25.80;99.90;;;;;;7390936;19;20153;-81
2023/09/09 09:32:10;;;;;;;7.15;6.45;;;25.90;99.90;;;;;;7389529;19;20616;-82
2023/09/09 09:34:36;;;;;;;7.25;6.45;;;25.90;99.90;;;;;;7389196;19;20226;-78
2023/09/09 09:37:10;;;;;;;6.78;5.93;;;25.90;99.90;;;;;;7385695;19;20532;-80
2023/09/09 09:39:36;;;;;;;7.85;5.93;;;25.90;99.90;;;;;;7389538;19;20150;-79
2023/09/09 09:42:03;;;;;;;6.63;5.97;;;25.90;99.90;;;;;;7389628;19;20154;-81
2023/09/09 09:44:28;;;;;;;7.93;6.20;;;25.90;99.90;;;;;;7389772;19;20186;-81
2023/09/09 09:47:05;;;;;;;6.97;6.28;;;25.90;99.90;;;;;;7388920;19;20269;-80
2023/09/09 09:49:39;;;;;;;9.23;7.03;;;26.00;99.90;;;;;;7389872;19;20130;-78
2023/09/09 09:52:06;;;;;;;8.35;6.47;;;26.00;99.90;;;;;;7388787;19;20138;-79
2023/09/09 09:54:33;;;;;;;7.72;6.50;;;26.10;99.90;;;;;;7389249;19;20146;-80
2023/09/09 09:57:03;;;;;;;8.30;6.05;;;26.30;99.90;;;;;;7385098;19;20147;-79
2023/09/09 09:59:34;;;;;;;6.82;6.13;;;26.40;99.90;;;;;;7387777;19;20138;-79
2023/09/09 10:02:00;;;;;;;6.03;5.43;;;26.60;99.90;;;;;;7386838;19;20495;-79
2023/09/09 10:04:30;;;;;;;7.80;6.57;;;26.60;99.90;;;;;;7384489;19;20160;-77
2023/09/09 10:07:02;;;;;;;7.85;5.80;;;26.80;99.90;;;;;;7385330;19;20134;-77
2023/09/09 10:09:38;;;;;;;6.03;5.43;;;26.80;99.90;;;;;;7386280;19;20146;-78
2023/09/09 10:12:13;;;;;;;7.18;6.47;;;27.00;99.90;;;;;;7389155;19;20145;-79
2023/09/09 10:14:41;;;;;;;7.53;6.45;;;27.00;99.90;;;;;;7386910;19;20186;-78
2023/09/09 10:17:08;;;;;;;12.07;7.60;;;27.00;99.90;;;;;;7383084;19;20649;-79
2023/09/09 10:19:38;;;;;;;10.27;7.28;;;27.00;99.90;;;;;;7388948;19;20138;-80
2023/09/09 10:22:07;;;;;;;9.18;7.53;;;27.00;99.90;;;;;;7386043;19;20131;-77
2023/09/09 10:24:38;;;;;;;9.38;6.43;;;26.90;99.90;;;;;;7384537;19;20466;-79
2023/09/09 10:27:04;;;;;;;8.02;5.32;;;26.90;99.90;;;;;;7385612;19;20475;-79
2023/09/09 10:29:31;;;;;;;7.72;5.82;;;26.90;99.90;;;;;;7388323;19;20613;-78
2023/09/09 10:32:05;;;;;;;8.65;7.65;;;27.20;99.90;;;;;;7384666;19;20567;-77
2023/09/09 10:34:36;;;;;;;7.47;6.43;;;27.40;99.90;;;;;;7385254;19;20158;-77
2023/09/09 10:37:03;;;;;;;7.47;6.28;;;27.40;99.90;;;;;;7389845;19;20702;-78
2023/09/09 10:39:31;;;;;;;7.50;6.30;;;27.50;99.90;;;;;;7393105;19;20167;-78
2023/09/09 10:41:57;;;;;;;6.72;6.05;;;27.50;99.90;;;;;;7393346;19;20161;-79
2023/09/09 10:44:23;;;;;;;7.22;5.80;;;27.50;99.90;;;;;;7389941;19;20222;-77
2023/09/09 10:46:56;;;;;;;6.22;5.63;;;27.50;99.90;;;;;;7392941;19;20171;-79
2023/09/09 10:49:30;;;;;;;8.90;5.78;;;27.70;99.90;;;;;;7391954;19;20270;-78
2023/09/09 10:51:56;;;;;;;6.82;5.47;;;27.80;99.90;;;;;;7391249;19;20474;-79
2023/09/09 10:54:24;;;;;;;6.03;5.47;;;27.60;99.90;;;;;;7390916;19;20146;-79
2023/09/09 10:56:52;;;;;;;5.65;4.65;;;27.70;99.90;;;;;;7388889;19;20150;-79
2023/09/09 10:59:20;;;;;;;6.93;5.72;;;27.80;99.90;;;;;;7391659;19;20568;-78
2023/09/09 11:02:07;;;;;;;7.22;5.40;;;27.80;99.90;;;;;;7391355;19;20221;-79
2023/09/09 11:04:35;;;;;;;8.73;6.15;;;27.80;99.90;;;;;;7387507;19;20651;-77
2023/09/09 11:07:09;;;;;;;6.28;5.53;;;27.90;99.90;;;;;;7392055;19;20146;-77
2023/09/09 11:09:36;;;;;;;5.53;5.03;;;28.00;99.90;;;;;;7392492;19;20161;-78
2023/09/09 11:12:16;;;;;;;6.85;4.53;;;28.00;99.90;;;;;;7392436;19;20182;-79
2023/09/09 11:14:45;;;;;;;5.22;4.63;;;28.10;99.90;;;;;;7391731;19;20142;-77
2023/09/09 11:17:12;;;;;;;5.10;4.53;;;28.10;99.90;;;;;;7390579;19;20154;-77
2023/09/09 11:19:39;;;;;;;6.65;4.63;;;28.20;99.90;;;;;;7389879;19;20143;-77
2023/09/09 11:22:06;;;;;;;8.27;5.53;;;28.20;99.90;;;;;;7392988;19;20142;-76
2023/09/09 11:24:34;;;;;;;5.68;4.45;;;28.10;99.90;;;;;;7391037;19;20155;-79
2023/09/09 11:27:01;;;;;;;5.00;4.43;;;28.20;99.90;;;;;;7391319;19;20150;-77
2023/09/09 11:29:29;;;;;;;5.93;5.07;;;28.10;99.90;;;;;;7391153;19;20159;-77
2023/09/09 11:31:55;;;;;;;6.53;4.10;;;28.10;99.90;;;;;;7390508;19;20568;-76
2023/09/09 11:34:33;;;;;;;4.65;4.07;;;28.20;99.90;;;;;;7389226;19;20162;-76
2023/09/09 11:37:00;;;;;;;4.60;4.10;;;28.20;99.90;;;;;;7387089;19;20150;-76
2023/09/09 11:39:26;;;;;;;5.53;3.90;;;28.30;99.90;;;;;;7390105;19;20181;-76
2023/09/09 11:41:52;;;;;;;7.80;4.20;;;28.30;99.90;;;;;;7387760;19;20131;-77
2023/09/09 11:44:17;;;;;;;7.35;4.30;;;28.50;99.90;;;;;;7387139;19;20504;-76
2023/09/09 11:46:48;;;;;;;9.45;4.75;;;28.60;99.90;;;;;;7390477;19;20141;-76
2023/09/09 11:49:19;;;;;;;7.38;4.55;;;28.60;99.90;;;;;;7390704;19;20149;-76
2023/09/09 11:51:45;;;;;;;8.55;4.20;;;28.50;99.90;;;;;;7390939;19;20504;-77
2023/09/09 11:54:17;;;;;;;5.00;4.47;;;28.50;99.90;;;;;;7389118;19;20556;-76
2023/09/09 11:56:42;;;;;;;7.20;4.07;;;28.60;99.90;;;;;;7388896;19;20660;-76
2023/09/09 11:59:10;;;;;;;6.78;4.50;;;28.60;99.90;;;;;;7387856;19;20155;-76
2023/09/09 12:01:43;;;;;;;9.68;4.13;;;28.70;99.90;;;;;;7389709;19;20157;-79
2023/09/09 12:04:10;;;;;;;13.55;4.72;;;28.80;99.90;;;;;;7389142;19;20678;-78
2023/09/09 12:06:38;;;;;;;8.32;3.58;;;28.70;99.90;;;;;;7390370;19;20162;-77
2023/09/09 12:09:05;;;;;;;5.93;4.97;;;28.70;99.90;;;;;;7389491;19;20920;-76
2023/09/09 12:11:33;;;;;;;8.00;4.85;;;28.80;99.90;;;;;;7389326;19;20131;-77
2023/09/09 12:14:00;;;;;;;6.30;3.83;;;28.80;99.90;;;;;;7386178;19;20141;-77
2023/09/09 12:16:32;;;;;;;6.18;4.40;;;28.80;99.90;;;;;;7388055;19;20174;-78
2023/09/09 12:18:59;;;;;;;6.25;4.25;;;28.90;99.90;;;;;;7390263;19;20737;-78
2023/09/09 12:21:25;;;;;;;5.32;4.10;;;28.90;99.90;;;;;;7390220;19;20648;-78
2023/09/09 12:23:59;;;;;;;7.10;4.13;;;28.90;99.90;;;;;;7388984;19;20638;-79
2023/09/09 12:26:35;;;;;;;7.63;5.10;;;29.00;99.90;;;;;;7382610;19;20554;-78
2023/09/09 12:29:21;;;;;;;10.90;4.55;;;28.90;99.90;;;;;;7391344;19;20214;-79
2023/09/09 12:32:06;;;;;;;6.30;3.78;;;28.80;99.90;;;;;;7392336;19;20597;-78
2023/09/09 12:34:31;;;;;;;7.28;3.80;;;28.80;99.90;;;;;;7388735;19;20145;-78
2023/09/09 12:36:59;;;;;;;7.50;3.90;;;28.90;99.90;;;;;;7388321;19;20139;-77
2023/09/09 12:39:29;;;;;;;7.70;3.70;;;28.90;99.90;;;;;;7390345;19;20138;-78
2023/09/09 12:42:02;;;;;;;6.63;3.92;;;28.90;99.90;;;;;;7387944;19;20151;-78
2023/09/09 12:44:52;;;;;;;6.18;4.15;;;29.00;99.90;;;;;;7386174;19;20165;-77
2023/09/09 12:47:24;;;;;;;7.40;4.00;;;29.10;99.90;;;;;;7387874;19;20479;-77